METAR Formatted Surface Weather Observation
Issued by NWS

Home | Current Version | Previous Version | Text Only | Print | Product List | Glossary On
Versions: 1 2 3 4 5 6
000
SAUS41 KLWX 261800
MTRRYT
METAR KRYT 261753Z AUTO 28007KT 10SM CLR 07/M01 A3023 RMK AO2 SLP246
T00721011 10078 20028 58020 $



USA.gov is the U.S. government's official web portal to all federal, state and local government web resources and services.